sensor_id;sensor_type;location;lat;lon;timestamp;P1;durP1;ratioP1;P2;durP2;ratioP2
19998;SDS011;10160;50.926;4.374;2023-12-14T00:00:43;55.53;;;21.23;;
19998;SDS011;10160;50.926;4.374;2023-12-14T00:03:11;59.30;;;21.47;;
19998;SDS011;10160;50.926;4.374;2023-12-14T00:05:37;54.57;;;19.73;;
19998;SDS011;10160;50.926;4.374;2023-12-14T00:08:02;57.57;;;19.80;;
19998;SDS011;10160;50.926;4.374;2023-12-14T00:10:28;59.83;;;21.33;;
19998;SDS011;10160;50.926;4.374;2023-12-14T00:12:54;53.67;;;19.77;;
19998;SDS011;10160;50.926;4.374;2023-12-14T00:15:20;61.20;;;21.27;;
19998;SDS011;10160;50.926;4.374;2023-12-14T00:17:46;55.70;;;20.87;;
19998;SDS011;10160;50.926;4.374;2023-12-14T00:20:12;62.20;;;21.80;;
19998;SDS011;10160;50.926;4.374;2023-12-14T00:22:39;56.27;;;20.20;;
19998;SDS011;10160;50.926;4.374;2023-12-14T00:25:05;58.83;;;20.17;;
19998;SDS011;10160;50.926;4.374;2023-12-14T00:27:31;56.67;;;21.10;;
19998;SDS011;10160;50.926;4.374;2023-12-14T00:29:56;57.67;;;21.30;;
19998;SDS011;10160;50.926;4.374;2023-12-14T00:32:25;55.67;;;21.20;;
19998;SDS011;10160;50.926;4.374;2023-12-14T00:34:51;59.63;;;20.97;;
19998;SDS011;10160;50.926;4.374;2023-12-14T00:37:22;60.27;;;20.50;;
19998;SDS011;10160;50.926;4.374;2023-12-14T00:39:48;57.70;;;21.03;;
19998;SDS011;10160;50.926;4.374;2023-12-14T00:42:19;68.90;;;21.93;;
19998;SDS011;10160;50.926;4.374;2023-12-14T00:44:45;60.30;;;21.87;;
19998;SDS011;10160;50.926;4.374;2023-12-14T00:47:11;70.10;;;21.57;;
19998;SDS011;10160;50.926;4.374;2023-12-14T00:49:36;67.47;;;22.63;;
19998;SDS011;10160;50.926;4.374;2023-12-14T00:52:02;59.73;;;21.57;;
19998;SDS011;10160;50.926;4.374;2023-12-14T00:54:29;63.93;;;23.87;;
19998;SDS011;10160;50.926;4.374;2023-12-14T00:56:54;70.30;;;23.30;;
19998;SDS011;10160;50.926;4.374;2023-12-14T00:59:20;68.77;;;23.27;;
19998;SDS011;10160;50.926;4.374;2023-12-14T01:01:46;66.17;;;23.53;;
19998;SDS011;10160;50.926;4.374;2023-12-14T01:04:12;63.87;;;20.90;;
19998;SDS011;10160;50.926;4.374;2023-12-14T01:06:40;63.87;;;21.97;;
19998;SDS011;10160;50.926;4.374;2023-12-14T01:09:06;68.23;;;22.47;;
19998;SDS011;10160;50.926;4.374;2023-12-14T01:11:33;64.00;;;23.43;;
19998;SDS011;10160;50.926;4.374;2023-12-14T01:13:58;63.40;;;22.97;;
19998;SDS011;10160;50.926;4.374;2023-12-14T01:16:25;61.97;;;22.70;;
19998;SDS011;10160;50.926;4.374;2023-12-14T01:18:52;70.77;;;23.97;;
19998;SDS011;10160;50.926;4.374;2023-12-14T01:21:18;69.37;;;23.90;;
19998;SDS011;10160;50.926;4.374;2023-12-14T01:23:43;70.50;;;23.73;;
19998;SDS011;10160;50.926;4.374;2023-12-14T01:26:09;68.90;;;24.63;;
19998;SDS011;10160;50.926;4.374;2023-12-14T01:28:35;70.13;;;25.00;;
19998;SDS011;10160;50.926;4.374;2023-12-14T01:31:00;66.60;;;25.33;;
19998;SDS011;10160;50.926;4.374;2023-12-14T01:33:26;71.67;;;24.20;;
19998;SDS011;10160;50.926;4.374;2023-12-14T01:35:51;58.90;;;22.93;;
19998;SDS011;10160;50.926;4.374;2023-12-14T01:38:20;61.07;;;22.33;;
19998;SDS011;10160;50.926;4.374;2023-12-14T01:40:45;63.43;;;22.37;;
19998;SDS011;10160;50.926;4.374;2023-12-14T01:43:11;66.77;;;21.60;;
19998;SDS011;10160;50.926;4.374;2023-12-14T01:45:37;55.80;;;20.70;;
19998;SDS011;10160;50.926;4.374;2023-12-14T01:48:06;56.63;;;20.13;;
19998;SDS011;10160;50.926;4.374;2023-12-14T01:50:32;60.50;;;19.83;;
19998;SDS011;10160;50.926;4.374;2023-12-14T01:53:01;52.07;;;19.00;;
19998;SDS011;10160;50.926;4.374;2023-12-14T01:55:26;46.13;;;18.23;;
19998;SDS011;10160;50.926;4.374;2023-12-14T01:57:52;50.17;;;20.03;;
19998;SDS011;10160;50.926;4.374;2023-12-14T02:00:40;50.00;;;19.03;;
19998;SDS011;10160;50.926;4.374;2023-12-14T02:03:07;54.73;;;19.30;;
19998;SDS011;10160;50.926;4.374;2023-12-14T02:05:33;51.27;;;18.93;;
19998;SDS011;10160;50.926;4.374;2023-12-14T02:07:58;51.63;;;18.00;;
19998;SDS011;10160;50.926;4.374;2023-12-14T02:10:24;49.50;;;18.87;;
19998;SDS011;10160;50.926;4.374;2023-12-14T02:12:53;53.10;;;19.33;;
19998;SDS011;10160;50.926;4.374;2023-12-14T02:15:18;50.10;;;18.63;;
19998;SDS011;10160;50.926;4.374;2023-12-14T02:17:45;54.40;;;18.33;;
19998;SDS011;10160;50.926;4.374;2023-12-14T02:20:10;52.30;;;19.53;;
19998;SDS011;10160;50.926;4.374;2023-12-14T02:22:49;53.10;;;18.83;;
19998;SDS011;10160;50.926;4.374;2023-12-14T02:25:19;49.73;;;19.63;;
19998;SDS011;10160;50.926;4.374;2023-12-14T02:27:49;57.80;;;20.10;;
19998;SDS011;10160;50.926;4.374;2023-12-14T02:30:16;57.50;;;20.23;;
19998;SDS011;10160;50.926;4.374;2023-12-14T02:32:43;63.87;;;21.33;;
19998;SDS011;10160;50.926;4.374;2023-12-14T02:35:09;56.33;;;21.27;;
19998;SDS011;10160;50.926;4.374;2023-12-14T02:37:35;53.53;;;20.40;;
19998;SDS011;10160;50.926;4.374;2023-12-14T02:40:07;56.43;;;21.30;;
19998;SDS011;10160;50.926;4.374;2023-12-14T02:42:34;64.63;;;22.70;;
19998;SDS011;10160;50.926;4.374;2023-12-14T02:44:59;63.30;;;22.60;;
19998;SDS011;10160;50.926;4.374;2023-12-14T02:47:27;53.13;;;20.70;;
19998;SDS011;10160;50.926;4.374;2023-12-14T02:49:53;61.20;;;21.93;;
19998;SDS011;10160;50.926;4.374;2023-12-14T02:52:26;59.90;;;22.30;;
19998;SDS011;10160;50.926;4.374;2023-12-14T02:54:51;57.63;;;21.87;;
19998;SDS011;10160;50.926;4.374;2023-12-14T02:57:20;62.33;;;22.90;;
19998;SDS011;10160;50.926;4.374;2023-12-14T02:59:45;62.90;;;23.77;;
19998;SDS011;10160;50.926;4.374;2023-12-14T03:02:11;59.43;;;22.17;;
19998;SDS011;10160;50.926;4.374;2023-12-14T03:04:40;57.07;;;23.17;;
19998;SDS011;10160;50.926;4.374;2023-12-14T03:07:06;63.23;;;23.17;;
19998;SDS011;10160;50.926;4.374;2023-12-14T03:09:32;66.07;;;24.30;;
19998;SDS011;10160;50.926;4.374;2023-12-14T03:12:06;62.87;;;24.50;;
19998;SDS011;10160;50.926;4.374;2023-12-14T03:14:32;53.93;;;21.60;;
19998;SDS011;10160;50.926;4.374;2023-12-14T03:16:58;45.60;;;19.20;;
19998;SDS011;10160;50.926;4.374;2023-12-14T03:19:24;47.73;;;20.20;;
19998;SDS011;10160;50.926;4.374;2023-12-14T03:21:49;47.80;;;19.63;;
19998;SDS011;10160;50.926;4.374;2023-12-14T03:24:15;44.53;;;19.83;;
19998;SDS011;10160;50.926;4.374;2023-12-14T03:26:44;48.10;;;20.80;;
19998;SDS011;10160;50.926;4.374;2023-12-14T03:29:10;46.03;;;21.33;;
19998;SDS011;10160;50.926;4.374;2023-12-14T03:31:36;45.50;;;20.10;;
19998;SDS011;10160;50.926;4.374;2023-12-14T03:34:01;48.70;;;20.50;;
19998;SDS011;10160;50.926;4.374;2023-12-14T03:36:27;42.53;;;19.33;;
19998;SDS011;10160;50.926;4.374;2023-12-14T03:38:53;44.77;;;18.80;;
19998;SDS011;10160;50.926;4.374;2023-12-14T03:41:19;47.03;;;19.47;;
19998;SDS011;10160;50.926;4.374;2023-12-14T03:43:47;40.53;;;18.13;;
19998;SDS011;10160;50.926;4.374;2023-12-14T03:46:13;38.13;;;17.03;;
19998;SDS011;10160;50.926;4.374;2023-12-14T03:48:39;34.60;;;17.33;;
19998;SDS011;10160;50.926;4.374;2023-12-14T03:51:04;33.23;;;16.23;;
19998;SDS011;10160;50.926;4.374;2023-12-14T03:53:30;35.20;;;16.20;;
19998;SDS011;10160;50.926;4.374;2023-12-14T03:56:02;34.10;;;15.23;;
19998;SDS011;10160;50.926;4.374;2023-12-14T03:58:28;37.20;;;15.87;;
19998;SDS011;10160;50.926;4.374;2023-12-14T04:00:54;38.40;;;17.57;;
19998;SDS011;10160;50.926;4.374;2023-12-14T04:03:20;33.07;;;16.13;;
19998;SDS011;10160;50.926;4.374;2023-12-14T04:05:45;37.83;;;16.73;;
19998;SDS011;10160;50.926;4.374;2023-12-14T04:08:11;40.27;;;17.60;;
19998;SDS011;10160;50.926;4.374;2023-12-14T04:10:36;32.63;;;16.37;;
19998;SDS011;10160;50.926;4.374;2023-12-14T04:13:02;35.00;;;16.10;;
19998;SDS011;10160;50.926;4.374;2023-12-14T04:15:28;31.47;;;15.77;;
19998;SDS011;10160;50.926;4.374;2023-12-14T04:17:56;35.73;;;17.63;;
19998;SDS011;10160;50.926;4.374;2023-12-14T04:20:31;33.70;;;16.37;;
19998;SDS011;10160;50.926;4.374;2023-12-14T04:22:59;33.87;;;16.87;;
19998;SDS011;10160;50.926;4.374;2023-12-14T04:25:28;35.10;;;16.77;;
19998;SDS011;10160;50.926;4.374;2023-12-14T04:27:56;35.07;;;16.53;;
19998;SDS011;10160;50.926;4.374;2023-12-14T04:30:22;32.27;;;16.83;;
19998;SDS011;10160;50.926;4.374;2023-12-14T04:32:47;33.20;;;16.30;;
19998;SDS011;10160;50.926;4.374;2023-12-14T04:35:13;29.90;;;15.63;;
19998;SDS011;10160;50.926;4.374;2023-12-14T04:37:39;33.07;;;16.93;;
19998;SDS011;10160;50.926;4.374;2023-12-14T04:40:05;32.03;;;16.33;;
19998;SDS011;10160;50.926;4.374;2023-12-14T04:42:31;30.57;;;16.50;;
19998;SDS011;10160;50.926;4.374;2023-12-14T04:44:56;28.30;;;14.03;;
19998;SDS011;10160;50.926;4.374;2023-12-14T04:47:22;29.03;;;15.03;;
19998;SDS011;10160;50.926;4.374;2023-12-14T04:49:47;30.97;;;14.67;;
19998;SDS011;10160;50.926;4.374;2023-12-14T04:52:13;29.53;;;15.63;;
19998;SDS011;10160;50.926;4.374;2023-12-14T04:54:42;32.33;;;16.43;;
19998;SDS011;10160;50.926;4.374;2023-12-14T04:57:07;32.47;;;16.47;;
19998;SDS011;10160;50.926;4.374;2023-12-14T04:59:33;32.90;;;16.83;;
19998;SDS011;10160;50.926;4.374;2023-12-14T05:02:07;34.57;;;15.93;;
19998;SDS011;10160;50.926;4.374;2023-12-14T05:04:33;35.13;;;17.17;;
19998;SDS011;10160;50.926;4.374;2023-12-14T05:06:58;32.83;;;17.17;;
19998;SDS011;10160;50.926;4.374;2023-12-14T05:09:24;32.00;;;16.40;;
19998;SDS011;10160;50.926;4.374;2023-12-14T05:11:50;31.53;;;17.20;;
19998;SDS011;10160;50.926;4.374;2023-12-14T05:14:15;32.13;;;15.87;;
19998;SDS011;10160;50.926;4.374;2023-12-14T05:16:41;33.17;;;17.20;;
19998;SDS011;10160;50.926;4.374;2023-12-14T05:19:07;29.60;;;15.87;;
19998;SDS011;10160;50.926;4.374;2023-12-14T05:21:35;28.83;;;15.87;;
19998;SDS011;10160;50.926;4.374;2023-12-14T05:24:01;29.63;;;16.20;;
19998;SDS011;10160;50.926;4.374;2023-12-14T05:26:35;30.17;;;16.53;;
19998;SDS011;10160;50.926;4.374;2023-12-14T05:29:00;32.73;;;16.70;;
19998;SDS011;10160;50.926;4.374;2023-12-14T05:31:29;29.70;;;16.27;;
19998;SDS011;10160;50.926;4.374;2023-12-14T05:33:58;31.47;;;16.30;;
19998;SDS011;10160;50.926;4.374;2023-12-14T05:36:26;29.67;;;15.87;;
19998;SDS011;10160;50.926;4.374;2023-12-14T05:38:55;28.10;;;16.00;;
19998;SDS011;10160;50.926;4.374;2023-12-14T05:41:20;31.83;;;16.70;;
19998;SDS011;10160;50.926;4.374;2023-12-14T05:43:46;29.90;;;16.00;;
19998;SDS011;10160;50.926;4.374;2023-12-14T05:46:24;29.80;;;15.87;;
19998;SDS011;10160;50.926;4.374;2023-12-14T05:48:50;28.73;;;15.33;;
19998;SDS011;10160;50.926;4.374;2023-12-14T05:51:28;31.53;;;16.40;;
19998;SDS011;10160;50.926;4.374;2023-12-14T05:54:03;30.07;;;15.60;;
19998;SDS011;10160;50.926;4.374;2023-12-14T05:56:29;29.30;;;16.23;;
19998;SDS011;10160;50.926;4.374;2023-12-14T05:58:54;28.13;;;15.87;;
19998;SDS011;10160;50.926;4.374;2023-12-14T06:01:20;31.73;;;16.57;;
19998;SDS011;10160;50.926;4.374;2023-12-14T06:03:46;27.43;;;15.67;;
19998;SDS011;10160;50.926;4.374;2023-12-14T06:06:15;31.23;;;16.43;;
19998;SDS011;10160;50.926;4.374;2023-12-14T06:08:41;31.00;;;16.00;;
19998;SDS011;10160;50.926;4.374;2023-12-14T06:11:07;34.23;;;16.17;;
19998;SDS011;10160;50.926;4.374;2023-12-14T06:13:36;27.77;;;15.80;;
19998;SDS011;10160;50.926;4.374;2023-12-14T06:16:02;33.63;;;16.13;;
19998;SDS011;10160;50.926;4.374;2023-12-14T06:18:37;27.77;;;15.33;;
19998;SDS011;10160;50.926;4.374;2023-12-14T06:21:12;33.60;;;15.20;;
19998;SDS011;10160;50.926;4.374;2023-12-14T06:23:38;29.67;;;15.90;;
19998;SDS011;10160;50.926;4.374;2023-12-14T06:26:07;30.50;;;15.00;;
19998;SDS011;10160;50.926;4.374;2023-12-14T06:28:32;28.80;;;14.53;;
19998;SDS011;10160;50.926;4.374;2023-12-14T06:30:58;32.83;;;16.00;;
19998;SDS011;10160;50.926;4.374;2023-12-14T06:33:26;28.50;;;15.53;;
19998;SDS011;10160;50.926;4.374;2023-12-14T06:35:55;29.93;;;16.20;;
19998;SDS011;10160;50.926;4.374;2023-12-14T06:38:20;28.83;;;16.13;;
19998;SDS011;10160;50.926;4.374;2023-12-14T06:40:46;26.60;;;15.30;;
19998;SDS011;10160;50.926;4.374;2023-12-14T06:43:11;29.10;;;14.80;;
19998;SDS011;10160;50.926;4.374;2023-12-14T06:45:37;31.87;;;15.83;;
19998;SDS011;10160;50.926;4.374;2023-12-14T06:48:03;31.73;;;16.27;;
19998;SDS011;10160;50.926;4.374;2023-12-14T06:50:29;28.20;;;14.50;;
19998;SDS011;10160;50.926;4.374;2023-12-14T06:52:54;27.10;;;13.70;;
19998;SDS011;10160;50.926;4.374;2023-12-14T06:55:20;30.47;;;14.77;;
19998;SDS011;10160;50.926;4.374;2023-12-14T06:57:46;28.00;;;14.70;;
19998;SDS011;10160;50.926;4.374;2023-12-14T07:00:12;26.07;;;14.20;;
19998;SDS011;10160;50.926;4.374;2023-12-14T07:02:41;32.03;;;13.93;;
19998;SDS011;10160;50.926;4.374;2023-12-14T07:05:10;28.27;;;14.17;;
19998;SDS011;10160;50.926;4.374;2023-12-14T07:07:35;28.37;;;13.90;;
19998;SDS011;10160;50.926;4.374;2023-12-14T07:10:01;26.83;;;13.13;;
19998;SDS011;10160;50.926;4.374;2023-12-14T07:12:27;25.50;;;13.30;;
19998;SDS011;10160;50.926;4.374;2023-12-14T07:14:52;22.60;;;12.10;;
19998;SDS011;10160;50.926;4.374;2023-12-14T07:17:18;28.20;;;12.60;;
19998;SDS011;10160;50.926;4.374;2023-12-14T07:19:43;27.60;;;11.83;;
19998;SDS011;10160;50.926;4.374;2023-12-14T07:22:09;24.67;;;11.37;;
19998;SDS011;10160;50.926;4.374;2023-12-14T07:24:41;22.07;;;11.00;;
19998;SDS011;10160;50.926;4.374;2023-12-14T07:27:07;23.33;;;11.97;;
19998;SDS011;10160;50.926;4.374;2023-12-14T07:29:32;22.40;;;11.60;;
19998;SDS011;10160;50.926;4.374;2023-12-14T07:31:58;26.13;;;12.60;;
19998;SDS011;10160;50.926;4.374;2023-12-14T07:34:24;29.33;;;12.00;;
19998;SDS011;10160;50.926;4.374;2023-12-14T07:36:50;21.50;;;11.13;;
19998;SDS011;10160;50.926;4.374;2023-12-14T07:39:19;23.87;;;12.23;;
19998;SDS011;10160;50.926;4.374;2023-12-14T07:41:44;23.83;;;11.43;;
19998;SDS011;10160;50.926;4.374;2023-12-14T07:44:16;21.23;;;11.37;;
19998;SDS011;10160;50.926;4.374;2023-12-14T07:46:42;22.30;;;11.33;;
19998;SDS011;10160;50.926;4.374;2023-12-14T07:49:08;24.90;;;11.53;;
19998;SDS011;10160;50.926;4.374;2023-12-14T07:51:34;25.47;;;11.57;;
19998;SDS011;10160;50.926;4.374;2023-12-14T07:53:59;25.57;;;11.93;;
19998;SDS011;10160;50.926;4.374;2023-12-14T07:56:25;21.27;;;11.73;;
19998;SDS011;10160;50.926;4.374;2023-12-14T07:58:52;23.40;;;12.77;;
19998;SDS011;10160;50.926;4.374;2023-12-14T08:01:18;22.90;;;12.27;;
19998;SDS011;10160;50.926;4.374;2023-12-14T08:03:45;24.50;;;11.67;;
19998;SDS011;10160;50.926;4.374;2023-12-14T08:06:11;21.50;;;11.50;;
19998;SDS011;10160;50.926;4.374;2023-12-14T08:08:37;24.27;;;11.53;;
19998;SDS011;10160;50.926;4.374;2023-12-14T08:11:05;20.63;;;11.67;;
19998;SDS011;10160;50.926;4.374;2023-12-14T08:13:31;22.70;;;10.93;;
19998;SDS011;10160;50.926;4.374;2023-12-14T08:15:57;26.00;;;12.20;;
19998;SDS011;10160;50.926;4.374;2023-12-14T08:18:22;19.63;;;10.50;;
19998;SDS011;10160;50.926;4.374;2023-12-14T08:20:48;25.33;;;11.30;;
19998;SDS011;10160;50.926;4.374;2023-12-14T08:23:13;24.57;;;10.80;;
19998;SDS011;10160;50.926;4.374;2023-12-14T08:25:39;26.13;;;12.07;;
19998;SDS011;10160;50.926;4.374;2023-12-14T08:28:05;25.47;;;10.30;;
19998;SDS011;10160;50.926;4.374;2023-12-14T08:30:33;22.27;;;11.17;;
19998;SDS011;10160;50.926;4.374;2023-12-14T08:32:58;21.97;;;10.53;;
19998;SDS011;10160;50.926;4.374;2023-12-14T08:35:24;26.50;;;10.07;;
19998;SDS011;10160;50.926;4.374;2023-12-14T08:37:50;18.27;;;8.63;;
19998;SDS011;10160;50.926;4.374;2023-12-14T08:40:15;18.50;;;9.67;;
19998;SDS011;10160;50.926;4.374;2023-12-14T08:42:46;23.17;;;8.37;;
19998;SDS011;10160;50.926;4.374;2023-12-14T08:45:12;18.50;;;8.37;;
19998;SDS011;10160;50.926;4.374;2023-12-14T08:47:40;19.00;;;8.30;;
19998;SDS011;10160;50.926;4.374;2023-12-14T08:50:06;16.60;;;8.23;;
19998;SDS011;10160;50.926;4.374;2023-12-14T08:52:33;16.30;;;7.40;;
19998;SDS011;10160;50.926;4.374;2023-12-14T08:55:02;14.50;;;7.47;;
19998;SDS011;10160;50.926;4.374;2023-12-14T08:57:28;20.27;;;8.37;;
19998;SDS011;10160;50.926;4.374;2023-12-14T08:59:53;20.13;;;7.90;;
19998;SDS011;10160;50.926;4.374;2023-12-14T09:02:19;16.80;;;8.43;;
19998;SDS011;10160;50.926;4.374;2023-12-14T09:04:45;13.70;;;8.07;;
19998;SDS011;10160;50.926;4.374;2023-12-14T09:07:10;18.67;;;8.60;;
19998;SDS011;10160;50.926;4.374;2023-12-14T09:09:36;18.73;;;8.90;;
19998;SDS011;10160;50.926;4.374;2023-12-14T09:12:02;15.93;;;8.67;;
19998;SDS011;10160;50.926;4.374;2023-12-14T09:14:27;19.80;;;8.63;;
19998;SDS011;10160;50.926;4.374;2023-12-14T09:16:54;19.60;;;8.67;;
19998;SDS011;10160;50.926;4.374;2023-12-14T09:19:26;18.03;;;7.77;;
19998;SDS011;10160;50.926;4.374;2023-12-14T09:21:51;14.53;;;7.80;;
19998;SDS011;10160;50.926;4.374;2023-12-14T09:24:17;16.67;;;8.37;;
19998;SDS011;10160;50.926;4.374;2023-12-14T09:26:43;18.07;;;8.13;;
19998;SDS011;10160;50.926;4.374;2023-12-14T09:29:08;18.03;;;8.70;;
19998;SDS011;10160;50.926;4.374;2023-12-14T09:31:34;17.70;;;8.40;;
19998;SDS011;10160;50.926;4.374;2023-12-14T09:34:00;17.93;;;8.53;;
19998;SDS011;10160;50.926;4.374;2023-12-14T09:36:29;16.10;;;7.83;;
19998;SDS011;10160;50.926;4.374;2023-12-14T09:38:55;18.17;;;8.07;;
19998;SDS011;10160;50.926;4.374;2023-12-14T09:41:20;16.27;;;7.50;;
19998;SDS011;10160;50.926;4.374;2023-12-14T09:43:47;14.77;;;7.73;;
19998;SDS011;10160;50.926;4.374;2023-12-14T09:46:13;15.10;;;7.50;;
19998;SDS011;10160;50.926;4.374;2023-12-14T09:48:42;17.50;;;8.00;;
19998;SDS011;10160;50.926;4.374;2023-12-14T09:51:18;14.03;;;7.10;;
19998;SDS011;10160;50.926;4.374;2023-12-14T09:53:43;15.70;;;6.83;;
19998;SDS011;10160;50.926;4.374;2023-12-14T09:56:10;20.27;;;7.90;;
19998;SDS011;10160;50.926;4.374;2023-12-14T09:58:38;14.83;;;7.20;;
19998;SDS011;10160;50.926;4.374;2023-12-14T10:01:20;17.00;;;7.70;;
19998;SDS011;10160;50.926;4.374;2023-12-14T10:03:47;15.63;;;7.70;;
19998;SDS011;10160;50.926;4.374;2023-12-14T10:06:17;13.23;;;7.80;;
19998;SDS011;10160;50.926;4.374;2023-12-14T10:08:45;16.90;;;6.93;;
19998;SDS011;10160;50.926;4.374;2023-12-14T10:11:20;15.83;;;7.13;;
19998;SDS011;10160;50.926;4.374;2023-12-14T10:13:46;18.93;;;6.90;;
19998;SDS011;10160;50.926;4.374;2023-12-14T10:16:11;16.13;;;7.17;;
19998;SDS011;10160;50.926;4.374;2023-12-14T10:18:37;13.73;;;6.80;;
19998;SDS011;10160;50.926;4.374;2023-12-14T10:21:05;19.20;;;7.80;;
19998;SDS011;10160;50.926;4.374;2023-12-14T10:23:34;14.63;;;6.93;;
19998;SDS011;10160;50.926;4.374;2023-12-14T10:26:00;19.83;;;7.90;;
19998;SDS011;10160;50.926;4.374;2023-12-14T10:28:26;17.53;;;7.43;;
19998;SDS011;10160;50.926;4.374;2023-12-14T10:30:53;15.43;;;6.90;;
19998;SDS011;10160;50.926;4.374;2023-12-14T10:33:19;11.97;;;7.23;;
19998;SDS011;10160;50.926;4.374;2023-12-14T10:35:47;17.40;;;6.70;;
19998;SDS011;10160;50.926;4.374;2023-12-14T10:38:14;16.93;;;6.87;;
19998;SDS011;10160;50.926;4.374;2023-12-14T10:40:42;15.50;;;7.37;;
19998;SDS011;10160;50.926;4.374;2023-12-14T10:43:12;13.97;;;7.03;;
19998;SDS011;10160;50.926;4.374;2023-12-14T10:45:39;18.57;;;7.33;;
19998;SDS011;10160;50.926;4.374;2023-12-14T10:48:08;11.07;;;6.13;;
19998;SDS011;10160;50.926;4.374;2023-12-14T10:50:34;16.13;;;6.77;;
19998;SDS011;10160;50.926;4.374;2023-12-14T10:53:02;14.57;;;6.10;;
19998;SDS011;10160;50.926;4.374;2023-12-14T10:55:31;17.17;;;5.97;;
19998;SDS011;10160;50.926;4.374;2023-12-14T10:58:09;14.60;;;6.33;;
19998;SDS011;10160;50.926;4.374;2023-12-14T11:00:36;13.43;;;6.03;;
19998;SDS011;10160;50.926;4.374;2023-12-14T11:03:03;15.13;;;6.20;;
19998;SDS011;10160;50.926;4.374;2023-12-14T11:05:31;11.53;;;5.30;;
19998;SDS011;10160;50.926;4.374;2023-12-14T11:08:05;11.83;;;5.07;;
19998;SDS011;10160;50.926;4.374;2023-12-14T11:13:08;14.97;;;5.40;;
19998;SDS011;10160;50.926;4.374;2023-12-14T11:15:37;13.93;;;5.47;;
19998;SDS011;10160;50.926;4.374;2023-12-14T11:23:10;17.53;;;5.40;;
19998;SDS011;10160;50.926;4.374;2023-12-14T11:26:04;13.93;;;5.40;;
19998;SDS011;10160;50.926;4.374;2023-12-14T11:28:35;14.97;;;4.33;;
19998;SDS011;10160;50.926;4.374;2023-12-14T11:31:02;11.13;;;4.13;;
19998;SDS011;10160;50.926;4.374;2023-12-14T11:33:34;11.63;;;4.90;;
19998;SDS011;10160;50.926;4.374;2023-12-14T11:36:01;12.23;;;5.50;;
19998;SDS011;10160;50.926;4.374;2023-12-14T11:38:28;13.77;;;4.83;;
19998;SDS011;10160;50.926;4.374;2023-12-14T11:40:55;9.80;;;4.77;;
19998;SDS011;10160;50.926;4.374;2023-12-14T11:43:20;11.27;;;4.50;;
19998;SDS011;10160;50.926;4.374;2023-12-14T11:45:49;13.80;;;4.97;;
19998;SDS011;10160;50.926;4.374;2023-12-14T11:48:18;11.30;;;5.57;;
19998;SDS011;10160;50.926;4.374;2023-12-14T11:50:45;12.50;;;4.93;;
19998;SDS011;10160;50.926;4.374;2023-12-14T11:53:12;12.27;;;5.27;;
19998;SDS011;10160;50.926;4.374;2023-12-14T11:55:40;12.63;;;5.60;;
19998;SDS011;10160;50.926;4.374;2023-12-14T11:58:07;15.33;;;6.30;;
19998;SDS011;10160;50.926;4.374;2023-12-14T12:00:34;11.87;;;5.53;;
19998;SDS011;10160;50.926;4.374;2023-12-14T12:05:41;14.27;;;6.10;;
19998;SDS011;10160;50.926;4.374;2023-12-14T12:08:11;17.20;;;6.27;;
19998;SDS011;10160;50.926;4.374;2023-12-14T12:10:38;18.60;;;6.73;;
19998;SDS011;10160;50.926;4.374;2023-12-14T12:13:06;18.73;;;6.07;;
19998;SDS011;10160;50.926;4.374;2023-12-14T12:15:35;13.37;;;5.87;;
19998;SDS011;10160;50.926;4.374;2023-12-14T12:18:09;16.70;;;6.73;;
19998;SDS011;10160;50.926;4.374;2023-12-14T12:20:44;17.87;;;6.73;;
19998;SDS011;10160;50.926;4.374;2023-12-14T12:23:10;13.23;;;5.97;;
19998;SDS011;10160;50.926;4.374;2023-12-14T12:25:35;20.93;;;7.43;;
19998;SDS011;10160;50.926;4.374;2023-12-14T12:28:02;17.53;;;6.73;;
19998;SDS011;10160;50.926;4.374;2023-12-14T12:30:30;16.00;;;7.73;;
19998;SDS011;10160;50.926;4.374;2023-12-14T12:32:56;22.87;;;8.27;;
19998;SDS011;10160;50.926;4.374;2023-12-14T12:35:22;17.57;;;8.03;;
19998;SDS011;10160;50.926;4.374;2023-12-14T12:37:49;21.37;;;7.57;;
19998;SDS011;10160;50.926;4.374;2023-12-14T12:40:24;18.33;;;8.03;;
19998;SDS011;10160;50.926;4.374;2023-12-14T12:42:54;19.03;;;7.10;;
19998;SDS011;10160;50.926;4.374;2023-12-14T12:45:20;21.00;;;8.27;;
19998;SDS011;10160;50.926;4.374;2023-12-14T12:47:52;22.03;;;8.13;;
19998;SDS011;10160;50.926;4.374;2023-12-14T12:50:18;24.80;;;8.30;;
19998;SDS011;10160;50.926;4.374;2023-12-14T12:52:45;17.37;;;7.43;;
19998;SDS011;10160;50.926;4.374;2023-12-14T12:55:13;19.23;;;7.47;;
19998;SDS011;10160;50.926;4.374;2023-12-14T12:57:42;16.93;;;7.97;;
19998;SDS011;10160;50.926;4.374;2023-12-14T13:00:08;19.23;;;8.10;;
19998;SDS011;10160;50.926;4.374;2023-12-14T13:02:41;19.93;;;7.53;;
19998;SDS011;10160;50.926;4.374;2023-12-14T13:05:07;14.97;;;7.00;;
19998;SDS011;10160;50.926;4.374;2023-12-14T13:07:35;22.17;;;8.60;;
19998;SDS011;10160;50.926;4.374;2023-12-14T13:10:01;18.80;;;7.67;;
19998;SDS011;10160;50.926;4.374;2023-12-14T13:12:34;14.03;;;7.77;;
19998;SDS011;10160;50.926;4.374;2023-12-14T13:14:59;19.43;;;7.37;;
19998;SDS011;10160;50.926;4.374;2023-12-14T13:17:25;15.83;;;7.07;;
19998;SDS011;10160;50.926;4.374;2023-12-14T13:19:54;16.00;;;7.03;;
19998;SDS011;10160;50.926;4.374;2023-12-14T13:22:20;15.63;;;6.40;;
19998;SDS011;10160;50.926;4.374;2023-12-14T13:24:45;16.73;;;6.60;;
19998;SDS011;10160;50.926;4.374;2023-12-14T13:27:11;16.87;;;6.50;;
19998;SDS011;10160;50.926;4.374;2023-12-14T13:29:37;15.17;;;6.57;;
19998;SDS011;10160;50.926;4.374;2023-12-14T13:32:03;11.97;;;6.27;;
19998;SDS011;10160;50.926;4.374;2023-12-14T13:34:28;16.23;;;7.10;;
19998;SDS011;10160;50.926;4.374;2023-12-14T13:36:54;13.93;;;6.93;;
19998;SDS011;10160;50.926;4.374;2023-12-14T13:39:20;14.40;;;6.73;;
19998;SDS011;10160;50.926;4.374;2023-12-14T13:41:46;15.00;;;6.33;;
19998;SDS011;10160;50.926;4.374;2023-12-14T13:44:13;13.20;;;6.97;;
19998;SDS011;10160;50.926;4.374;2023-12-14T13:46:39;13.80;;;6.80;;
19998;SDS011;10160;50.926;4.374;2023-12-14T13:49:04;10.93;;;6.07;;
19998;SDS011;10160;50.926;4.374;2023-12-14T13:51:30;19.50;;;6.07;;
19998;SDS011;10160;50.926;4.374;2023-12-14T13:53:55;13.70;;;6.23;;
19998;SDS011;10160;50.926;4.374;2023-12-14T13:56:21;14.80;;;6.27;;
19998;SDS011;10160;50.926;4.374;2023-12-14T13:58:47;16.03;;;6.90;;
19998;SDS011;10160;50.926;4.374;2023-12-14T14:01:13;14.87;;;7.17;;
19998;SDS011;10160;50.926;4.374;2023-12-14T14:03:41;15.30;;;6.37;;
19998;SDS011;10160;50.926;4.374;2023-12-14T14:06:11;15.63;;;7.40;;
19998;SDS011;10160;50.926;4.374;2023-12-14T14:08:37;10.70;;;6.27;;
19998;SDS011;10160;50.926;4.374;2023-12-14T14:11:03;15.03;;;7.00;;
19998;SDS011;10160;50.926;4.374;2023-12-14T14:13:29;12.73;;;6.87;;
19998;SDS011;10160;50.926;4.374;2023-12-14T14:16:01;16.20;;;7.60;;
19998;SDS011;10160;50.926;4.374;2023-12-14T14:18:26;20.57;;;7.60;;
19998;SDS011;10160;50.926;4.374;2023-12-14T14:20:52;14.93;;;7.50;;
19998;SDS011;10160;50.926;4.374;2023-12-14T14:23:26;19.60;;;8.53;;
19998;SDS011;10160;50.926;4.374;2023-12-14T14:25:52;18.80;;;7.90;;
19998;SDS011;10160;50.926;4.374;2023-12-14T14:28:21;18.30;;;8.13;;
19998;SDS011;10160;50.926;4.374;2023-12-14T14:30:47;16.57;;;8.10;;
19998;SDS011;10160;50.926;4.374;2023-12-14T14:33:14;19.37;;;7.70;;
19998;SDS011;10160;50.926;4.374;2023-12-14T14:35:43;15.13;;;7.53;;